Time;durP1;ratioP1;P1;durP2;ratioP2;P2;SDS_P1;SDS_P2;PMS_P1;PMS_P2;Temp;Humidity;BMP_temperature;BMP_pressure;BME280_temperature;BME280_humidity;BME280_pressure;Samples;Min_cycle;Max_cycle;Signal;HPM_P1;HPM_P2
2023/05/27 00:02:17;;;;;;;8.15;1.65;;;;;;;;;;5015509;28;20053;-71
2023/05/27 00:04:43;;;;;;;9.60;2.10;;;;;;;;;;5029053;28;20104;-68
2023/05/27 00:07:10;;;;;;;13.45;2.58;;;;;;;;;;5048560;28;20057;-68
2023/05/27 00:09:36;;;;;;;7.38;1.98;;;;;;;;;;5065395;28;20052;-69
2023/05/27 00:12:05;;;;;;;9.50;1.80;;;;;;;;;;5044581;28;20075;-68
2023/05/27 00:14:34;;;;;;;8.45;2.22;;;;;;;;;;5023545;28;20134;-70
2023/05/27 00:17:01;;;;;;;7.15;1.80;;;;;;;;;;4988783;28;20080;-70
2023/05/27 00:19:29;;;;;;;9.52;1.70;;;;;;;;;;5024894;28;20079;-70
2023/05/27 00:21:55;;;;;;;8.97;1.83;;;;;;;;;;5018096;28;20152;-68
2023/05/27 00:24:22;;;;;;;8.13;1.70;;;;;;;;;;5040289;28;20143;-68
2023/05/27 00:26:48;;;;;;;5.20;1.65;;;;;;;;;;5003876;28;20073;-68
2023/05/27 00:29:16;;;;;;;10.23;2.05;;;;;;;;;;5025787;28;20148;-68
2023/05/27 00:31:43;;;;;;;3.97;1.30;;;;;;;;;;5055743;28;20041;-69
2023/05/27 00:34:10;;;;;;;4.63;1.33;;;;;;;;;;5020112;28;20064;-69
2023/05/27 00:36:36;;;;;;;10.40;5.18;;;;;;;;;;5007153;28;20080;-67
2023/05/27 00:39:03;;;;;;;11.30;3.70;;;;;;;;;;5032977;28;20041;-69
2023/05/27 00:41:29;;;;;;;11.27;2.38;;;;;;;;;;5023879;28;20053;-69
2023/05/27 00:43:56;;;;;;;9.98;2.00;;;;;;;;;;5019890;28;20124;-69
2023/05/27 00:46:25;;;;;;;6.95;1.65;;;;;;;;;;5038468;28;20148;-68
2023/05/27 00:48:51;;;;;;;9.20;1.88;;;;;;;;;;5032905;28;20106;-67
2023/05/27 00:51:18;;;;;;;8.98;1.73;;;;;;;;;;5024308;28;20060;-68
2023/05/27 00:53:45;;;;;;;7.97;1.88;;;;;;;;;;5018576;28;20155;-68
2023/05/27 00:56:12;;;;;;;8.02;2.00;;;;;;;;;;5020204;28;20080;-68
2023/05/27 00:58:39;;;;;;;7.65;1.50;;;;;;;;;;5011098;28;20057;-68
2023/05/27 01:01:07;;;;;;;5.20;1.40;;;;;;;;;;5037045;28;21242;-67
2023/05/27 01:03:35;;;;;;;6.38;1.80;;;;;;;;;;5039497;28;20061;-68
2023/05/27 01:06:06;;;;;;;5.68;1.25;;;;;;;;;;5017631;28;20140;-68
2023/05/27 01:08:35;;;;;;;9.52;2.10;;;;;;;;;;5019248;28;20135;-68
2023/05/27 01:11:03;;;;;;;9.85;1.70;;;;;;;;;;5033534;28;20107;-68
2023/05/27 01:13:33;;;;;;;9.73;1.70;;;;;;;;;;5034956;28;20063;-69
2023/05/27 01:16:00;;;;;;;6.43;1.63;;;;;;;;;;4996957;28;20168;-69
2023/05/27 01:18:29;;;;;;;4.15;1.30;;;;;;;;;;5000547;28;20200;-68
2023/05/27 01:20:55;;;;;;;;;;;;;;;;;;5027606;28;20067;-68
2023/05/27 01:23:24;;;;;;;5.78;1.30;;;;;;;;;;5020851;28;19925;-69
2023/05/27 01:25:51;;;;;;;9.98;1.77;;;;;;;;;;5013909;28;20056;-68
2023/05/27 01:28:17;;;;;;;7.45;1.73;;;;;;;;;;5023569;28;20147;-68
2023/05/27 01:30:43;;;;;;;4.57;1.55;;;;;;;;;;5025875;28;20159;-69
2023/05/27 01:33:12;;;;;;;;;;;;;;;;;;5038842;28;20049;-68
2023/05/27 01:35:41;;;;;;;8.63;1.65;;;;;;;;;;5031780;28;19935;-68
2023/05/27 01:38:10;;;;;;;9.65;1.90;;;;;;;;;;5026141;28;20128;-68
2023/05/27 01:40:38;;;;;;;4.20;1.35;;;;;;;;;;5012892;28;20061;-68
2023/05/27 01:43:06;;;;;;;4.25;1.55;;;;;;;;;;5019417;28;20183;-69
2023/05/27 01:45:33;;;;;;;6.20;1.98;;;;;;;;;;5014954;28;20143;-69
2023/05/27 01:47:59;;;;;;;9.27;1.75;;;;;;;;;;5020700;28;20096;-68
2023/05/27 01:50:26;;;;;;;6.10;2.03;;;;;;;;;;5017126;28;20057;-67
2023/05/27 01:52:52;;;;;;;7.32;1.70;;;;;;;;;;5031011;28;20055;-68
2023/05/27 01:55:19;;;;;;;7.35;1.75;;;;;;;;;;5032089;28;20061;-69
2023/05/27 01:57:47;;;;;;;5.75;1.42;;;;;;;;;;5021286;28;20064;-68
2023/05/27 02:00:15;;;;;;;7.10;1.65;;;;;;;;;;5037192;28;20088;-69
2023/05/27 02:02:42;;;;;;;4.78;1.17;;;;;;;;;;5011536;28;20060;-68
2023/05/27 02:05:09;;;;;;;8.95;1.48;;;;;;;;;;5022140;28;20124;-68
2023/05/27 02:07:36;;;;;;;9.75;2.10;;;;;;;;;;5028115;28;20067;-69
2023/05/27 02:10:02;;;;;;;4.82;1.30;;;;;;;;;;5034175;28;20146;-68
2023/05/27 02:12:29;;;;;;;6.03;1.85;;;;;;;;;;5004661;28;20060;-68
2023/05/27 02:14:57;;;;;;;7.30;2.03;;;;;;;;;;5015804;28;20045;-68
2023/05/27 02:17:24;;;;;;;4.93;1.33;;;;;;;;;;5021126;28;20059;-69
2023/05/27 02:19:50;;;;;;;6.95;1.50;;;;;;;;;;5018570;28;20049;-68
2023/05/27 02:22:17;;;;;;;7.85;1.60;;;;;;;;;;5011044;28;20081;-68
2023/05/27 02:24:43;;;;;;;9.65;2.15;;;;;;;;;;5015988;28;20060;-68
2023/05/27 02:27:10;;;;;;;5.40;1.45;;;;;;;;;;5012819;28;20057;-68
2023/05/27 02:29:37;;;;;;;6.35;1.73;;;;;;;;;;5031380;28;20866;-69
2023/05/27 02:32:05;;;;;;;9.45;1.95;;;;;;;;;;5033891;28;20082;-69
2023/05/27 02:34:36;;;;;;;;;;;;;;;;;;5032950;28;20052;-68
2023/05/27 02:37:02;;;;;;;4.18;1.63;;;;;;;;;;5016241;28;19936;-68
2023/05/27 02:39:28;;;;;;;4.40;1.60;;;;;;;;;;5014097;28;20131;-69
2023/05/27 02:41:55;;;;;;;5.50;1.33;;;;;;;;;;5016458;28;20148;-69
2023/05/27 02:44:21;;;;;;;6.65;1.40;;;;;;;;;;5016216;28;20107;-69
2023/05/27 02:46:48;;;;;;;9.02;2.30;;;;;;;;;;5042790;28;20083;-68
2023/05/27 02:49:16;;;;;;;11.20;2.03;;;;;;;;;;5032583;28;20053;-68
2023/05/27 02:51:43;;;;;;;;;;;;;;;;;;5034694;28;20080;-68
2023/05/27 02:54:09;;;;;;;10.18;1.85;;;;;;;;;;5015280;28;19925;-68
2023/05/27 02:56:36;;;;;;;5.75;1.85;;;;;;;;;;5020988;28;20052;-68
2023/05/27 02:59:02;;;;;;;6.47;1.50;;;;;;;;;;5021055;28;20065;-68
2023/05/27 03:01:28;;;;;;;15.57;2.50;;;;;;;;;;5033800;28;20068;-68
2023/05/27 03:03:55;;;;;;;5.75;1.65;;;;;;;;;;5069079;28;20052;-68
2023/05/27 03:06:23;;;;;;;8.88;1.70;;;;;;;;;;5073091;28;20056;-68
2023/05/27 03:08:49;;;;;;;5.93;1.60;;;;;;;;;;5069185;28;20143;-68
2023/05/27 03:11:16;;;;;;;5.88;1.33;;;;;;;;;;5055555;28;20056;-70
2023/05/27 03:13:43;;;;;;;5.53;1.95;;;;;;;;;;5068871;28;20040;-68
2023/05/27 03:16:10;;;;;;;8.90;1.90;;;;;;;;;;5055818;28;20052;-68
2023/05/27 03:18:37;;;;;;;9.60;2.20;;;;;;;;;;5051741;28;20060;-68
2023/05/27 03:21:03;;;;;;;12.18;2.53;;;;;;;;;;5058161;28;20084;-67
2023/05/27 03:23:31;;;;;;;7.72;1.63;;;;;;;;;;5051326;28;20057;-69
2023/05/27 03:25:58;;;;;;;9.17;1.80;;;;;;;;;;5030595;28;20056;-68
2023/05/27 03:28:24;;;;;;;8.32;1.75;;;;;;;;;;5058033;28;20301;-68
2023/05/27 03:30:55;;;;;;;6.15;1.67;;;;;;;;;;5035565;28;20052;-68
2023/05/27 03:33:22;;;;;;;8.05;1.88;;;;;;;;;;5043942;28;20056;-69
2023/05/27 03:35:49;;;;;;;7.32;1.52;;;;;;;;;;5051071;28;20056;-68
2023/05/27 03:38:15;;;;;;;6.03;1.70;;;;;;;;;;5072995;28;20152;-68
2023/05/27 03:40:43;;;;;;;10.32;2.10;;;;;;;;;;5040849;28;20064;-68
2023/05/27 03:43:13;;;;;;;11.23;2.10;;;;;;;;;;5040048;28;20049;-68
2023/05/27 03:45:39;;;;;;;6.65;1.75;;;;;;;;;;5049408;28;20151;-68
2023/05/27 03:48:06;;;;;;;7.45;1.65;;;;;;;;;;5057773;28;20125;-68
2023/05/27 03:50:33;;;;;;;9.40;1.63;;;;;;;;;;5056206;28;20055;-68
2023/05/27 03:52:59;;;;;;;5.60;1.45;;;;;;;;;;5060194;28;20052;-68
2023/05/27 03:55:26;;;;;;;12.60;2.13;;;;;;;;;;5030105;28;20080;-68
2023/05/27 03:57:54;;;;;;;7.50;1.80;;;;;;;;;;5061767;28;20068;-68
2023/05/27 04:00:21;;;;;;;5.55;2.00;;;;;;;;;;5039306;28;20242;-68
2023/05/27 04:02:47;;;;;;;12.32;2.00;;;;;;;;;;5045096;28;20063;-68
2023/05/27 04:05:16;;;;;;;5.05;1.58;;;;;;;;;;5016796;28;20057;-69
2023/05/27 04:07:43;;;;;;;6.53;1.98;;;;;;;;;;5037029;28;20049;-68
2023/05/27 04:10:09;;;;;;;4.50;1.23;;;;;;;;;;5034608;28;20068;-68
2023/05/27 04:12:36;;;;;;;8.80;1.70;;;;;;;;;;5016529;28;20146;-69
2023/05/27 04:15:09;;;;;;;9.48;1.90;;;;;;;;;;5028470;28;20049;-68
2023/05/27 04:17:36;;;;;;;9.57;1.98;;;;;;;;;;5009966;28;20053;-69
2023/05/27 04:20:10;;;;;;;10.15;2.05;;;;;;;;;;5018523;28;20057;-68
2023/05/27 04:22:37;;;;;;;8.05;1.70;;;;;;;;;;5032723;28;20119;-69
2023/05/27 04:25:07;;;;;;;13.15;2.03;;;;;;;;;;5031011;28;20049;-68
2023/05/27 04:27:33;;;;;;;6.97;1.80;;;;;;;;;;5018166;28;20052;-69
2023/05/27 04:30:00;;;;;;;5.10;1.80;;;;;;;;;;5021490;28;20075;-68
2023/05/27 04:32:28;;;;;;;8.10;1.42;;;;;;;;;;5018523;28;20073;-68
2023/05/27 04:34:54;;;;;;;12.82;2.47;;;;;;;;;;5002504;28;20067;-68
2023/05/27 04:37:21;;;;;;;4.90;1.50;;;;;;;;;;5013412;28;20148;-68
2023/05/27 04:39:48;;;;;;;3.97;1.40;;;;;;;;;;5021396;28;20126;-68
2023/05/27 04:42:15;;;;;;;9.77;1.40;;;;;;;;;;5016475;28;20181;-69
2023/05/27 04:44:41;;;;;;;5.50;1.52;;;;;;;;;;5009789;28;20053;-68
2023/05/27 04:47:09;;;;;;;6.47;1.77;;;;;;;;;;5019352;28;20065;-69
2023/05/27 04:49:39;;;;;;;5.97;1.50;;;;;;;;;;5038361;28;20055;-68
2023/05/27 04:52:06;;;;;;;9.63;1.65;;;;;;;;;;5036268;28;20064;-68
2023/05/27 04:54:33;;;;;;;5.75;1.60;;;;;;;;;;5035593;28;20048;-69
2023/05/27 04:57:02;;;;;;;10.15;1.83;;;;;;;;;;5022335;28;20122;-68
2023/05/27 04:59:45;;;;;;;8.85;1.75;;;;;;;;;;5017014;28;20122;-68
2023/05/27 05:02:21;;;;;;;5.75;1.92;;;;;;;;;;5049671;28;20060;-69
2023/05/27 05:04:50;;;;;;;7.68;1.45;;;;;;;;;;5068965;28;20078;-69
2023/05/27 05:07:17;;;;;;;8.65;1.70;;;;;;;;;;5058496;28;20066;-68
2023/05/27 05:09:44;;;;;;;14.32;1.92;;;;;;;;;;5078583;28;20181;-68
2023/05/27 05:12:10;;;;;;;3.80;1.30;;;;;;;;;;5056326;28;20059;-68
2023/05/27 05:14:37;;;;;;;5.05;1.42;;;;;;;;;;5039187;28;20063;-68
2023/05/27 05:17:03;;;;;;;5.47;1.60;;;;;;;;;;5058574;28;20064;-68
2023/05/27 05:19:30;;;;;;;4.50;1.60;;;;;;;;;;5035558;28;20136;-68
2023/05/27 05:21:58;;;;;;;9.50;2.17;;;;;;;;;;5058033;28;20052;-68
2023/05/27 05:24:24;;;;;;;8.80;1.97;;;;;;;;;;5053439;28;20049;-68
2023/05/27 05:26:51;;;;;;;10.73;1.95;;;;;;;;;;5059068;28;20067;-68
2023/05/27 05:29:17;;;;;;;5.85;1.80;;;;;;;;;;5070213;28;20048;-68
2023/05/27 05:31:45;;;;;;;15.20;2.35;;;;;;;;;;5056367;28;20084;-68
2023/05/27 05:34:11;;;;;;;15.70;2.60;;;;;;;;;;5053312;28;20048;-68
2023/05/27 05:36:38;;;;;;;7.72;1.88;;;;;;;;;;5061517;28;20061;-68
2023/05/27 05:39:06;;;;;;;7.47;1.35;;;;;;;;;;5052436;28;20063;-68
2023/05/27 05:41:32;;;;;;;9.00;1.73;;;;;;;;;;5052770;28;20070;-68
2023/05/27 05:43:59;;;;;;;6.88;1.63;;;;;;;;;;5055438;28;20121;-68
2023/05/27 05:46:25;;;;;;;5.80;1.60;;;;;;;;;;5060706;28;20116;-68
2023/05/27 05:48:53;;;;;;;6.82;1.98;;;;;;;;;;5059054;28;20056;-68
2023/05/27 05:51:19;;;;;;;4.72;1.38;;;;;;;;;;5035294;28;20074;-69
2023/05/27 05:53:46;;;;;;;7.53;1.92;;;;;;;;;;5040465;28;20056;-68
2023/05/27 05:56:14;;;;;;;7.80;1.65;;;;;;;;;;5053067;28;20052;-67
2023/05/27 05:58:40;;;;;;;9.93;1.85;;;;;;;;;;5058287;28;20139;-66
2023/05/27 06:01:07;;;;;;;14.18;2.00;;;;;;;;;;5055674;28;20060;-67
2023/05/27 06:03:35;;;;;;;6.63;1.52;;;;;;;;;;5051833;28;20168;-67
2023/05/27 06:06:03;;;;;;;4.68;1.67;;;;;;;;;;5067887;28;20063;-67
2023/05/27 06:08:30;;;;;;;6.40;1.60;;;;;;;;;;5061351;28;20052;-68
2023/05/27 06:10:56;;;;;;;22.00;3.38;;;;;;;;;;5051981;28;20060;-69
2023/05/27 06:13:24;;;;;;;6.82;1.90;;;;;;;;;;5064179;28;20087;-68
2023/05/27 06:15:51;;;;;;;6.03;2.03;;;;;;;;;;5048904;28;20125;-68
2023/05/27 06:18:17;;;;;;;9.00;1.80;;;;;;;;;;5072428;28;20401;-68
2023/05/27 06:20:44;;;;;;;7.72;1.83;;;;;;;;;;5067483;28;20100;-68
2023/05/27 06:23:12;;;;;;;7.00;1.95;;;;;;;;;;5072769;28;20188;-68
2023/05/27 06:25:39;;;;;;;6.22;2.05;;;;;;;;;;5037587;28;20135;-68
2023/05/27 06:28:05;;;;;;;5.13;1.45;;;;;;;;;;5071989;28;20165;-68
2023/05/27 06:30:33;;;;;;;8.20;1.60;;;;;;;;;;5071165;28;20075;-68
2023/05/27 06:33:00;;;;;;;12.90;2.15;;;;;;;;;;5053402;28;20064;-68
2023/05/27 06:35:29;;;;;;;11.57;1.85;;;;;;;;;;5052989;28;20052;-71
2023/05/27 06:37:56;;;;;;;16.27;2.22;;;;;;;;;;5055915;28;20048;-68
2023/05/27 06:40:23;;;;;;;7.63;1.77;;;;;;;;;;5057566;28;20048;-68
2023/05/27 06:42:49;;;;;;;6.43;1.73;;;;;;;;;;5057182;28;20084;-68
2023/05/27 06:45:18;;;;;;;10.82;1.98;;;;;;;;;;5057159;28;20105;-67
2023/05/27 06:47:45;;;;;;;6.25;1.50;;;;;;;;;;5052752;28;20052;-68
2023/05/27 06:50:12;;;;;;;19.08;4.65;;;;;;;;;;5074028;28;20109;-67
2023/05/27 06:52:39;;;;;;;15.10;2.30;;;;;;;;;;5054170;28;20048;-68
2023/05/27 06:55:06;;;;;;;13.32;2.30;;;;;;;;;;5069900;28;20064;-67
2023/05/27 06:57:32;;;;;;;5.68;1.60;;;;;;;;;;5047034;28;20116;-68
2023/05/27 06:59:59;;;;;;;4.40;1.40;;;;;;;;;;5057366;28;20101;-68
2023/05/27 07:02:26;;;;;;;13.82;2.45;;;;;;;;;;5052365;28;20076;-68
2023/05/27 07:04:54;;;;;;;7.35;1.98;;;;;;;;;;5057322;28;20056;-68
2023/05/27 07:07:20;;;;;;;9.48;2.10;;;;;;;;;;5060976;28;20080;-69
2023/05/27 07:09:47;;;;;;;8.70;1.85;;;;;;;;;;5058816;28;21400;-68
2023/05/27 07:12:15;;;;;;;6.55;1.80;;;;;;;;;;5058883;28;20154;-67
2023/05/27 07:14:41;;;;;;;8.03;1.80;;;;;;;;;;5038617;28;20116;-68
2023/05/27 07:17:10;;;;;;;10.93;2.58;;;;;;;;;;5041422;28;20127;-69
2023/05/27 07:19:36;;;;;;;;;;;;;;;;;;5051753;28;20071;-68
2023/05/27 07:22:04;;;;;;;5.97;1.63;;;;;;;;;;5059268;28;19982;-66
2023/05/27 07:24:31;;;;;;;8.45;1.63;;;;;;;;;;5058123;28;20110;-66
2023/05/27 07:26:57;;;;;;;14.27;2.53;;;;;;;;;;5063909;28;20155;-67
2023/05/27 07:29:24;;;;;;;10.95;2.03;;;;;;;;;;5039416;28;20071;-68
2023/05/27 07:31:50;;;;;;;10.00;2.10;;;;;;;;;;5048002;28;20108;-69
2023/05/27 07:34:17;;;;;;;8.57;2.13;;;;;;;;;;5048110;28;20143;-67
2023/05/27 07:36:43;;;;;;;10.63;2.30;;;;;;;;;;5060400;28;20052;-67
2023/05/27 07:39:12;;;;;;;11.85;2.30;;;;;;;;;;5054611;28;20080;-66
2023/05/27 07:41:38;;;;;;;14.93;2.10;;;;;;;;;;5036717;28;20060;-68
2023/05/27 07:44:04;;;;;;;6.35;1.50;;;;;;;;;;5041438;28;20056;-68
2023/05/27 07:46:32;;;;;;;8.10;1.80;;;;;;;;;;5040294;28;20147;-67
2023/05/27 07:48:58;;;;;;;13.25;2.10;;;;;;;;;;5038758;28;20056;-68
2023/05/27 07:51:25;;;;;;;7.35;1.90;;;;;;;;;;5054474;28;20125;-67
2023/05/27 07:53:51;;;;;;;10.15;2.13;;;;;;;;;;5062941;28;20134;-66
2023/05/27 07:56:19;;;;;;;11.65;2.08;;;;;;;;;;5045686;28;20060;-69
2023/05/27 07:58:46;;;;;;;5.43;1.43;;;;;;;;;;5061313;28;20057;-66
2023/05/27 08:01:12;;;;;;;11.18;2.20;;;;;;;;;;5054073;28;20098;-69
2023/05/27 08:03:39;;;;;;;10.15;2.83;;;;;;;;;;5055984;28;20048;-68
2023/05/27 08:06:06;;;;;;;6.65;1.70;;;;;;;;;;5039439;28;20092;-67
2023/05/27 08:08:32;;;;;;;17.77;3.33;;;;;;;;;;5064637;28;20044;-67
2023/05/27 08:10:59;;;;;;;13.73;3.72;;;;;;;;;;5064934;28;20082;-66
2023/05/27 08:13:26;;;;;;;19.33;6.50;;;;;;;;;;5057765;28;20180;-69
2023/05/27 08:15:53;;;;;;;63.17;29.20;;;;;;;;;;5065054;28;20148;-67
2023/05/27 08:18:20;;;;;;;124.57;61.15;;;;;;;;;;5041706;28;20053;-66
2023/05/27 08:20:47;;;;;;;96.13;44.10;;;;;;;;;;5036263;28;20076;-69
2023/05/27 08:23:14;;;;;;;49.90;21.88;;;;;;;;;;5035832;28;20056;-68
2023/05/27 08:25:42;;;;;;;52.72;24.40;;;;;;;;;;5033846;28;20064;-70
2023/05/27 08:28:08;;;;;;;43.53;21.25;;;;;;;;;;5076146;28;20239;-67
2023/05/27 08:30:36;;;;;;;31.60;12.05;;;;;;;;;;5057812;28;20052;-70
2023/05/27 08:33:03;;;;;;;32.92;13.15;;;;;;;;;;5058520;28;20071;-70
2023/05/27 08:35:30;;;;;;;29.45;10.95;;;;;;;;;;5058114;28;20048;-70
2023/05/27 08:37:57;;;;;;;17.35;4.60;;;;;;;;;;5048058;28;20059;-67
2023/05/27 08:40:23;;;;;;;20.15;4.70;;;;;;;;;;5064247;28;20044;-66
2023/05/27 08:42:50;;;;;;;16.92;5.10;;;;;;;;;;5039769;28;20048;-66
2023/05/27 08:45:16;;;;;;;22.48;4.57;;;;;;;;;;5048923;28;20079;-65
2023/05/27 08:47:44;;;;;;;19.13;4.43;;;;;;;;;;5034140;28;20063;-66
2023/05/27 08:50:11;;;;;;;14.50;3.87;;;;;;;;;;5053467;28;20154;-65
2023/05/27 08:52:42;;;;;;;12.98;3.60;;;;;;;;;;5063465;28;20317;-65
2023/05/27 08:55:09;;;;;;;19.10;5.15;;;;;;;;;;5056231;28;20076;-66
2023/05/27 08:57:36;;;;;;;19.13;5.35;;;;;;;;;;5049597;28;20113;-67
2023/05/27 09:00:05;;;;;;;18.95;4.40;;;;;;;;;;5057395;28;20053;-66
2023/05/27 09:02:31;;;;;;;20.88;7.45;;;;;;;;;;5049942;28;20056;-66
2023/05/27 09:04:59;;;;;;;14.43;5.47;;;;;;;;;;5038349;28;20095;-66
2023/05/27 09:07:25;;;;;;;22.10;4.60;;;;;;;;;;5073228;28;20068;-66
2023/05/27 09:10:00;;;;;;;23.05;3.85;;;;;;;;;;5069777;28;20072;-65
2023/05/27 09:12:28;;;;;;;12.68;3.72;;;;;;;;;;5048718;28;20048;-66
2023/05/27 09:14:55;;;;;;;10.10;3.22;;;;;;;;;;5041306;28;20047;-66
2023/05/27 09:17:23;;;;;;;14.50;3.65;;;;;;;;;;5052064;28;20113;-65
2023/05/27 09:19:51;;;;;;;15.13;3.60;;;;;;;;;;5038002;28;20067;-66
2023/05/27 09:22:24;;;;;;;12.20;3.38;;;;;;;;;;5039554;28;20151;-66
2023/05/27 09:24:53;;;;;;;16.67;4.22;;;;;;;;;;5006690;28;20135;-66
2023/05/27 09:27:19;;;;;;;;;;;;;;;;;;5030196;28;20064;-67
2023/05/27 09:29:46;;;;;;;14.18;3.78;;;;;;;;;;5050633;28;19964;-66
2023/05/27 09:32:12;;;;;;;17.13;3.90;;;;;;;;;;5045076;28;20056;-67
2023/05/27 09:34:39;;;;;;;13.55;3.42;;;;;;;;;;5036649;28;20130;-65
2023/05/27 09:37:05;;;;;;;11.05;3.10;;;;;;;;;;5037193;28;20057;-66
2023/05/27 09:39:36;;;;;;;13.95;3.22;;;;;;;;;;5043486;28;20143;-66
2023/05/27 09:42:03;;;;;;;10.40;2.80;;;;;;;;;;5074577;28;20063;-65
2023/05/27 09:44:30;;;;;;;9.95;2.80;;;;;;;;;;5009855;28;20068;-69
2023/05/27 09:46:58;;;;;;;17.90;5.82;;;;;;;;;;5025953;28;20068;-67
2023/05/27 09:49:27;;;;;;;13.68;3.35;;;;;;;;;;5044732;28;20099;-68
2023/05/27 09:51:54;;;;;;;9.25;3.00;;;;;;;;;;5054211;28;20068;-66
2023/05/27 09:54:21;;;;;;;11.57;2.92;;;;;;;;;;5033930;28;20049;-66
2023/05/27 09:56:50;;;;;;;13.10;3.55;;;;;;;;;;5036685;28;20091;-67
2023/05/27 09:59:17;;;;;;;13.93;3.00;;;;;;;;;;5035684;28;20178;-65
2023/05/27 10:01:46;;;;;;;16.40;3.35;;;;;;;;;;5056826;28;20072;-69
2023/05/27 10:04:16;;;;;;;13.20;3.42;;;;;;;;;;5051135;28;20060;-68
2023/05/27 10:06:45;;;;;;;8.45;2.88;;;;;;;;;;5044509;28;20056;-67
2023/05/27 10:09:15;;;;;;;14.55;3.42;;;;;;;;;;5073016;28;20087;-68
2023/05/27 10:11:42;;;;;;;14.20;3.65;;;;;;;;;;5052715;28;20070;-68
2023/05/27 10:14:11;;;;;;;13.18;2.97;;;;;;;;;;5072655;28;20128;-68
2023/05/27 10:16:38;;;;;;;14.35;3.00;;;;;;;;;;5043409;28;20147;-70
2023/05/27 10:19:10;;;;;;;9.07;2.53;;;;;;;;;;5058310;28;20064;-67
2023/05/27 10:21:43;;;;;;;17.65;4.78;;;;;;;;;;5062345;28;21349;-67
2023/05/27 10:24:11;;;;;;;14.98;3.15;;;;;;;;;;5057223;28;20067;-67
2023/05/27 10:26:39;;;;;;;13.38;2.60;;;;;;;;;;5058193;28;20057;-68
2023/05/27 10:29:06;;;;;;;;;;;;;;;;;;5076088;28;20063;-68
2023/05/27 10:31:33;;;;;;;12.57;3.08;;;;;;;;;;5056367;28;19942;-68
2023/05/27 10:34:00;;;;;;;9.98;2.40;;;;;;;;;;5051779;28;20139;-67
2023/05/27 10:36:28;;;;;;;13.98;2.95;;;;;;;;;;5046217;28;20055;-68
2023/05/27 10:38:56;;;;;;;10.15;2.75;;;;;;;;;;5055262;28;20059;-68
2023/05/27 10:41:25;;;;;;;19.63;4.70;;;;;;;;;;5059229;28;20052;-67
2023/05/27 10:43:55;;;;;;;10.13;2.88;;;;;;;;;;5057090;28;20080;-67
2023/05/27 10:46:22;;;;;;;9.65;2.40;;;;;;;;;;5040182;28;20062;-66
2023/05/27 10:48:49;;;;;;;14.63;2.95;;;;;;;;;;5057200;28;20124;-66
2023/05/27 10:51:16;;;;;;;10.38;2.50;;;;;;;;;;5041421;28;21441;-70
2023/05/27 10:53:43;;;;;;;14.18;3.30;;;;;;;;;;5072027;28;20052;-69
2023/05/27 10:56:10;;;;;;;12.48;3.17;;;;;;;;;;5067368;28;20060;-68
2023/05/27 10:58:37;;;;;;;11.75;2.88;;;;;;;;;;5053856;28;20055;-72
2023/05/27 11:01:11;;;;;;;11.05;2.95;;;;;;;;;;5056492;28;20199;-69
2023/05/27 11:03:43;;;;;;;13.40;2.65;;;;;;;;;;5065324;28;20117;-70
2023/05/27 11:06:11;;;;;;;13.93;2.88;;;;;;;;;;5006451;28;20067;-69
2023/05/27 11:08:38;;;;;;;9.10;2.25;;;;;;;;;;5072278;28;20052;-68
2023/05/27 11:11:07;;;;;;;16.63;2.78;;;;;;;;;;5068635;28;20068;-68
2023/05/27 11:13:35;;;;;;;12.40;2.90;;;;;;;;;;5032144;28;20157;-72
2023/05/27 11:16:03;;;;;;;11.43;2.95;;;;;;;;;;4941691;28;20122;-71
2023/05/27 11:18:38;;;;;;;9.18;2.50;;;;;;;;;;5001116;28;20135;-71
2023/05/27 11:21:05;;;;;;;7.47;2.35;;;;;;;;;;5036559;28;20065;-74
2023/05/27 11:23:41;;;;;;;12.02;2.55;;;;;;;;;;5031882;28;20060;-71
2023/05/27 11:26:16;;;;;;;18.38;3.70;;;;;;;;;;5039805;28;20048;-72
2023/05/27 11:28:52;;;;;;;14.82;2.85;;;;;;;;;;5037757;28;20059;-71
2023/05/27 11:31:20;;;;;;;7.55;2.30;;;;;;;;;;5035780;28;20057;-74
2023/05/27 11:33:50;;;;;;;6.40;2.08;;;;;;;;;;5052350;28;20060;-74
2023/05/27 11:36:20;;;;;;;15.10;3.50;;;;;;;;;;4963477;28;20217;-70
2023/05/27 11:38:49;;;;;;;6.75;2.45;;;;;;;;;;4965385;28;20049;-72
2023/05/27 11:44:00;;;;;;;7.63;2.20;;;;;;;;;;5067914;27;20430;-69
2023/05/27 11:46:27;;;;;;;;;;;;;;;;;;5015189;28;20057;-68
2023/05/27 11:49:01;;;;;;;14.52;3.05;;;;;;;;;;5013384;28;19929;-69
2023/05/27 11:51:29;;;;;;;11.32;2.67;;;;;;;;;;5011077;28;20058;-69
2023/05/27 11:54:01;;;;;;;15.95;3.30;;;;;;;;;;5010759;28;20065;-69
2023/05/27 11:56:29;;;;;;;8.98;2.60;;;;;;;;;;5008005;28;20061;-69
2023/05/27 11:58:56;;;;;;;11.85;2.35;;;;;;;;;;5015637;28;20061;-69
2023/05/27 12:01:25;;;;;;;9.35;2.67;;;;;;;;;;5026452;28;20057;-67
2023/05/27 12:03:54;;;;;;;7.70;2.30;;;;;;;;;;5010630;28;20108;-67
2023/05/27 12:06:21;;;;;;;11.52;2.45;;;;;;;;;;5012952;28;20077;-68
2023/05/27 12:08:48;;;;;;;10.20;3.13;;;;;;;;;;5016201;28;20062;-69
2023/05/27 12:11:14;;;;;;;9.05;2.25;;;;;;;;;;5007215;28;20064;-68
2023/05/27 12:13:41;;;;;;;8.05;2.72;;;;;;;;;;5012633;28;22687;-69
2023/05/27 12:16:08;;;;;;;17.90;4.38;;;;;;;;;;5010473;28;20062;-68
2023/05/27 12:18:36;;;;;;;12.05;2.97;;;;;;;;;;5016899;28;20057;-68
2023/05/27 12:21:03;;;;;;;11.02;2.60;;;;;;;;;;5010802;28;20064;-68
2023/05/27 12:23:30;;;;;;;17.05;2.85;;;;;;;;;;5009718;28;20140;-68
2023/05/27 12:25:56;;;;;;;8.23;2.70;;;;;;;;;;5010804;28;20147;-69
2023/05/27 12:28:23;;;;;;;12.05;3.25;;;;;;;;;;5011553;28;20050;-68
2023/05/27 12:30:50;;;;;;;9.98;2.80;;;;;;;;;;5002178;28;20367;-68
2023/05/27 12:33:17;;;;;;;8.15;2.75;;;;;;;;;;5003449;28;20082;-68
2023/05/27 12:35:50;;;;;;;16.98;4.20;;;;;;;;;;4992643;28;20065;-68
2023/05/27 12:38:17;;;;;;;11.98;3.28;;;;;;;;;;5013194;28;20061;-69
2023/05/27 12:40:43;;;;;;;8.38;2.55;;;;;;;;;;5010737;28;20061;-69
2023/05/27 12:43:13;;;;;;;15.88;5.13;;;;;;;;;;5012764;28;20172;-67
2023/05/27 12:45:39;;;;;;;12.07;4.72;;;;;;;;;;4987201;28;20053;-70
2023/05/27 12:48:06;;;;;;;9.02;2.33;;;;;;;;;;5011902;28;20061;-70
2023/05/27 12:50:33;;;;;;;17.42;4.55;;;;;;;;;;5019204;28;20050;-70
2023/05/27 12:53:02;;;;;;;14.60;4.15;;;;;;;;;;5011366;28;20062;-68
2023/05/27 12:55:28;;;;;;;15.27;4.05;;;;;;;;;;4981493;28;20111;-68
2023/05/27 12:57:55;;;;;;;10.15;2.85;;;;;;;;;;5008753;28;20049;-68
2023/05/27 13:00:22;;;;;;;10.55;2.50;;;;;;;;;;4999901;28;20437;-68
2023/05/27 13:02:48;;;;;;;9.07;2.42;;;;;;;;;;5001724;28;20042;-68
2023/05/27 13:05:17;;;;;;;9.00;2.33;;;;;;;;;;4997260;28;20152;-69
2023/05/27 13:07:53;;;;;;;10.63;2.72;;;;;;;;;;4997166;28;20065;-68
2023/05/27 13:10:22;;;;;;;7.10;2.17;;;;;;;;;;5000095;28;20085;-68
2023/05/27 13:12:49;;;;;;;10.98;3.10;;;;;;;;;;4997283;28;20084;-68
2023/05/27 13:15:18;;;;;;;7.28;2.30;;;;;;;;;;4984396;28;20062;-67
2023/05/27 13:17:45;;;;;;;12.13;3.00;;;;;;;;;;4979870;28;20050;-68
2023/05/27 13:20:15;;;;;;;11.40;2.63;;;;;;;;;;5000256;28;20058;-68
2023/05/27 13:22:42;;;;;;;12.48;2.92;;;;;;;;;;4995332;28;20050;-68
2023/05/27 13:25:12;;;;;;;9.32;2.25;;;;;;;;;;4997812;28;20117;-68
2023/05/27 13:27:44;;;;;;;9.13;2.78;;;;;;;;;;4991361;28;20071;-69
2023/05/27 13:30:14;;;;;;;8.25;2.13;;;;;;;;;;4999620;28;20058;-69
2023/05/27 13:32:43;;;;;;;13.02;3.03;;;;;;;;;;4998224;28;20053;-69
2023/05/27 13:35:13;;;;;;;12.35;4.78;;;;;;;;;;4996699;28;20078;-68
2023/05/27 13:37:40;;;;;;;9.60;3.20;;;;;;;;;;4992238;28;20085;-68
2023/05/27 13:40:08;;;;;;;8.98;2.80;;;;;;;;;;4999663;28;20058;-69
2023/05/27 13:42:37;;;;;;;11.40;2.67;;;;;;;;;;5000611;28;20064;-68
2023/05/27 13:45:08;;;;;;;9.65;2.55;;;;;;;;;;4994407;28;20063;-69
2023/05/27 13:47:34;;;;;;;8.30;2.75;;;;;;;;;;4990971;28;20049;-68
2023/05/27 13:50:01;;;;;;;12.65;2.90;;;;;;;;;;4994435;28;20057;-69
2023/05/27 13:52:27;;;;;;;10.93;2.05;;;;;;;;;;4999750;28;20065;-69
2023/05/27 13:54:54;;;;;;;12.43;2.88;;;;;;;;;;4993635;28;20061;-68
2023/05/27 13:57:20;;;;;;;7.85;2.45;;;;;;;;;;4983215;28;20049;-69
2023/05/27 13:59:47;;;;;;;8.60;2.20;;;;;;;;;;4994162;28;20117;-68
2023/05/27 14:02:15;;;;;;;8.15;2.17;;;;;;;;;;5000710;28;20073;-69
2023/05/27 14:04:44;;;;;;;8.63;2.35;;;;;;;;;;4996203;28;20064;-68
2023/05/27 14:07:13;;;;;;;6.15;2.13;;;;;;;;;;5001356;28;20065;-68
2023/05/27 14:09:41;;;;;;;12.63;2.10;;;;;;;;;;4990017;28;20079;-68
2023/05/27 14:12:07;;;;;;;9.43;2.53;;;;;;;;;;4999399;28;20141;-68
2023/05/27 14:14:34;;;;;;;10.82;2.58;;;;;;;;;;4995268;28;20087;-69
2023/05/27 14:17:01;;;;;;;15.38;2.75;;;;;;;;;;4968021;28;20061;-68
2023/05/27 14:19:29;;;;;;;8.15;2.88;;;;;;;;;;4989722;28;20062;-68
2023/05/27 14:21:55;;;;;;;;;;;;;;;;;;4998562;28;20057;-67
2023/05/27 14:24:22;;;;;;;8.98;2.83;;;;;;;;;;4993787;28;19988;-69
2023/05/27 14:26:48;;;;;;;6.78;2.50;;;;;;;;;;4968030;28;20068;-68
2023/05/27 14:29:20;;;;;;;39.10;20.58;;;;;;;;;;4999082;28;20061;-70
2023/05/27 14:31:47;;;;;;;11.85;3.63;;;;;;;;;;4997244;28;20058;-66
2023/05/27 14:34:14;;;;;;;19.80;3.45;;;;;;;;;;5000802;28;20065;-66
2023/05/27 14:36:42;;;;;;;8.82;2.75;;;;;;;;;;4982110;28;20062;-68
2023/05/27 14:39:11;;;;;;;13.40;3.63;;;;;;;;;;4996400;28;20057;-65
2023/05/27 14:41:38;;;;;;;13.95;3.03;;;;;;;;;;4991176;28;20053;-67
2023/05/27 14:44:09;;;;;;;13.02;3.10;;;;;;;;;;4998492;28;20077;-67
2023/05/27 14:46:36;;;;;;;14.48;3.35;;;;;;;;;;4993330;28;20054;-66